createdAt,value
2022-11-03T00:01:02.479Z,101328.34
2022-11-03T00:06:08.047Z,101326.50
2022-11-03T00:11:12.831Z,101318.34
2022-11-03T00:16:16.812Z,101311.97
2022-11-03T00:21:19.993Z,101311.41
2022-11-03T00:26:24.038Z,101301.44
2022-11-03T00:31:29.730Z,101301.06
2022-11-03T00:36:34.542Z,101301.44
2022-11-03T00:41:37.686Z,101292.97
2022-11-03T00:46:41.689Z,101286.91
2022-11-03T00:51:44.242Z,101280.94
2022-11-03T00:56:46.766Z,101275.31
2022-11-03T01:01:50.788Z,101276.16
2022-11-03T01:06:56.542Z,101271.34
2022-11-03T01:12:02.334Z,101270.19
2022-11-03T01:17:08.046Z,101265.31
2022-11-03T01:22:11.480Z,101256.38
2022-11-03T01:27:17.204Z,101235.97
2022-11-03T01:32:21.207Z,101239.91
2022-11-03T01:37:25.796Z,101215.13
2022-11-03T01:42:28.318Z,101215.19
2022-11-03T01:47:34.905Z,101210.75
2022-11-03T01:52:40.649Z,101211.47
2022-11-03T01:57:47.813Z,101193.50
2022-11-03T02:02:52.806Z,101182.72
2022-11-03T02:08:01.313Z,101172.31
2022-11-03T02:13:13.511Z,101162.72
2022-11-03T02:18:20.728Z,101167.09
2022-11-03T02:23:31.338Z,101159.78
2022-11-03T02:28:35.292Z,101150.97
2022-11-03T02:33:47.882Z,101142.78
2022-11-03T02:38:57.246Z,101132.47
2022-11-03T02:44:03.317Z,101033.16
2022-11-03T02:49:05.852Z,101108.59
2022-11-03T02:54:16.171Z,101101.38
2022-11-03T02:59:25.454Z,101099.88
2022-11-03T03:04:33.857Z,101095.94
2022-11-03T03:09:40.195Z,101080.97
2022-11-03T03:14:47.045Z,101078.00
2022-11-03T03:19:54.066Z,101079.28
2022-11-03T03:25:01.633Z,101074.38
2022-11-03T03:30:08.245Z,101063.44
2022-11-03T03:35:16.918Z,101045.84
2022-11-03T03:40:26.182Z,100964.66
2022-11-03T03:45:32.510Z,101039.03
2022-11-03T03:50:39.460Z,101052.97
2022-11-03T03:55:45.123Z,101043.28
2022-11-03T04:00:49.089Z,100943.63
2022-11-03T04:05:52.580Z,101035.03
2022-11-03T04:11:12.602Z,101028.00
2022-11-03T04:16:34.294Z,101020.25
2022-11-03T04:21:54.548Z,101014.63
2022-11-03T04:27:01.749Z,100998.47
2022-11-03T04:32:15.007Z,100995.38
2022-11-03T04:37:18.215Z,100990.72
2022-11-03T04:42:22.684Z,100980.31
2022-11-03T04:47:27.048Z,100984.53
2022-11-03T04:52:30.868Z,100978.06
2022-11-03T04:57:33.403Z,100972.63
2022-11-03T05:02:37.290Z,100956.22
2022-11-03T05:07:39.821Z,100956.41
2022-11-03T05:12:42.677Z,100941.63
2022-11-03T05:17:46.579Z,100944.00
2022-11-03T05:22:49.160Z,100946.75
2022-11-03T05:27:51.767Z,100938.25
2022-11-03T05:32:55.660Z,100924.94
2022-11-03T05:37:58.713Z,100925.41
2022-11-03T05:43:02.412Z,100917.13
2022-11-03T05:48:16.741Z,100909.16
2022-11-03T05:53:29.088Z,100897.72
2022-11-03T05:58:35.862Z,100905.25
2022-11-03T06:03:40.478Z,100903.38
2022-11-03T06:08:45.957Z,100886.72
2022-11-03T06:13:49.147Z,100882.94
2022-11-03T06:18:53.077Z,100870.47
2022-11-03T06:23:55.998Z,100881.91
2022-11-03T06:29:01.025Z,100870.91
2022-11-03T06:34:14.415Z,100865.16
2022-11-03T06:39:22.193Z,100864.00
2022-11-03T06:44:26.716Z,100850.00
2022-11-03T06:49:33.183Z,100845.53
2022-11-03T06:54:36.136Z,100840.09
2022-11-03T06:59:38.712Z,100851.69
2022-11-03T07:04:42.562Z,100847.34
2022-11-03T07:09:45.106Z,100830.44
2022-11-03T07:14:47.638Z,100826.88
2022-11-03T07:19:52.110Z,100830.88
2022-11-03T07:24:57.754Z,100829.69
2022-11-03T07:30:07.781Z,100810.53
2022-11-03T07:35:26.921Z,100806.44
2022-11-03T07:40:34.091Z,100806.50
2022-11-03T07:45:39.783Z,100798.47
2022-11-03T07:50:43.777Z,100799.31
2022-11-03T07:55:47.352Z,100789.38
2022-11-03T08:00:50.222Z,100782.81
2022-11-03T08:05:54.134Z,100789.88
2022-11-03T08:10:56.672Z,100791.56
2022-11-03T08:16:00.268Z,100734.50
2022-11-03T08:21:04.274Z,100775.09
2022-11-03T08:26:06.959Z,100767.03
2022-11-03T08:31:13.047Z,100756.84
2022-11-03T08:36:17.528Z,100757.81
2022-11-03T08:41:20.125Z,100751.53
2022-11-03T08:46:22.661Z,100738.00
2022-11-03T08:51:26.665Z,100727.84
2022-11-03T08:56:30.093Z,100708.50
2022-11-03T09:01:32.706Z,100705.69
2022-11-03T09:06:36.636Z,100697.84
2022-11-03T09:11:39.190Z,100689.75
2022-11-03T09:16:41.738Z,100661.44
2022-11-03T09:21:45.613Z,100660.97
2022-11-03T09:26:48.207Z,100637.72
2022-11-03T09:31:51.050Z,100638.66
2022-11-03T09:36:55.171Z,100616.38
2022-11-03T09:42:00.119Z,100609.47
2022-11-03T09:47:03.116Z,100598.78
2022-11-03T09:52:07.074Z,100577.81
2022-11-03T09:57:13.656Z,100566.84
2022-11-03T10:02:22.741Z,100564.59
2022-11-03T10:07:28.578Z,100556.34
2022-11-03T10:12:36.537Z,100532.38
2022-11-03T10:17:39.346Z,100532.84
2022-11-03T10:22:45.116Z,100533.63
2022-11-03T10:27:47.662Z,100516.78
2022-11-03T10:32:50.173Z,100516.50
2022-11-03T10:37:54.455Z,100514.28
2022-11-03T10:42:59.641Z,100478.09
2022-11-03T10:48:05.828Z,100469.59
2022-11-03T10:53:17.855Z,100457.94
2022-11-03T10:58:20.494Z,100439.34
2022-11-03T11:03:24.027Z,100433.16
2022-11-03T11:08:27.996Z,100440.75
2022-11-03T11:13:31.006Z,100442.47
2022-11-03T11:19:11.424Z,100424.91
2022-11-03T11:24:15.348Z,100416.34
2022-11-03T11:29:43.237Z,100411.03
2022-11-03T11:34:45.803Z,100397.41
2022-11-03T11:39:49.687Z,100395.69
2022-11-03T11:45:00.366Z,100369.31
2022-11-03T11:50:17.180Z,100360.59
2022-11-03T11:55:27.851Z,100349.66
2022-11-03T12:00:33.506Z,100334.09
2022-11-03T12:05:36.758Z,100309.91
2022-11-03T12:10:53.292Z,100293.06
2022-11-03T12:15:56.844Z,100225.38
2022-11-03T12:20:59.595Z,100266.28
2022-11-03T12:26:07.526Z,100263.47
2022-11-03T12:31:11.021Z,100165.50
2022-11-03T12:36:13.560Z,100238.88
2022-11-03T12:41:24.538Z,100226.09
2022-11-03T12:46:27.329Z,100200.34
2022-11-03T12:51:29.861Z,100187.28
2022-11-03T12:56:33.842Z,100184.75
2022-11-03T13:01:37.561Z,100178.47
2022-11-03T13:06:40.201Z,100146.00
2022-11-03T13:12:01.396Z,100148.16
2022-11-03T13:17:04.443Z,100137.72
2022-11-03T13:22:06.969Z,100122.25
2022-11-03T13:27:10.877Z,100095.03
2022-11-03T13:32:13.455Z,100086.00
2022-11-03T13:37:16.046Z,100086.22
2022-11-03T13:42:20.113Z,100069.69
2022-11-03T13:47:38.889Z,100057.03
2022-11-03T13:52:45.563Z,100041.47
2022-11-03T14:08:35.332Z,100023.84
2022-11-03T14:13:39.178Z,100014.78
2022-11-03T14:18:41.761Z,100004.47
2022-11-03T14:23:45.639Z,99983.78
2022-11-03T14:28:50.062Z,99975.38
2022-11-03T14:33:52.611Z,99982.16
2022-11-03T14:38:55.454Z,99975.13
2022-11-03T14:44:00.054Z,99980.59
2022-11-03T14:49:02.717Z,99997.34
2022-11-03T14:54:05.326Z,100015.31
2022-11-03T14:59:09.217Z,100023.00
2022-11-03T15:04:12.994Z,99997.44
2022-11-03T15:09:15.939Z,100013.03
2022-11-03T15:14:19.872Z,99986.44
2022-11-03T15:19:22.469Z,99984.47
2022-11-03T15:29:49.528Z,99964.63
2022-11-03T15:34:52.551Z,99964.66
2022-11-03T15:39:58.754Z,99942.09
2022-11-03T15:45:04.592Z,99929.22
2022-11-03T15:50:08.226Z,99910.34
2022-11-03T15:55:11.163Z,99895.94
2022-11-03T16:00:15.678Z,99893.00
2022-11-03T16:05:23.830Z,99893.00
2022-11-03T16:10:27.791Z,99867.53
2022-11-03T16:15:31.672Z,99855.53
2022-11-03T16:20:34.253Z,99851.88
2022-11-03T16:25:36.804Z,99836.91
2022-11-03T16:30:40.758Z,99835.41
2022-11-03T16:35:45.984Z,99827.69
2022-11-03T16:40:49.307Z,99828.81
2022-11-03T16:45:53.575Z,99815.38
2022-11-03T16:50:57.833Z,99815.81
2022-11-03T16:56:00.346Z,99800.72
2022-11-03T17:01:04.530Z,99788.97
2022-11-03T17:06:07.513Z,99804.38
2022-11-03T17:11:10.086Z,99791.78
2022-11-03T17:16:13.949Z,99785.78
2022-11-03T17:21:16.485Z,99776.84
2022-11-03T17:26:22.365Z,99766.22
2022-11-03T17:31:26.676Z,99760.75
2022-11-03T17:36:29.221Z,99749.03
2022-11-03T17:41:31.811Z,99759.34
2022-11-03T17:46:35.660Z,99744.56
2022-11-03T17:51:42.777Z,99741.44
2022-11-03T17:56:45.723Z,99746.06
2022-11-03T18:01:51.325Z,99741.56
2022-11-03T18:06:53.908Z,99735.16
2022-11-03T18:12:14.611Z,99732.91
2022-11-03T18:17:18.600Z,99701.47
2022-11-03T18:22:21.160Z,99720.44
2022-11-03T18:27:25.460Z,99729.66
2022-11-03T18:32:34.736Z,99737.50
2022-11-03T18:37:39.630Z,99727.03
2022-11-03T18:42:42.896Z,99720.44
2022-11-03T18:47:46.917Z,99729.69
2022-11-03T18:52:51.912Z,99714.44
2022-11-03T18:57:54.906Z,99714.59
2022-11-03T19:03:13.349Z,99710.38
2022-11-03T19:08:36.349Z,99702.97
2022-11-03T19:13:57.371Z,99692.63
2022-11-03T19:19:16.411Z,99686.63
2022-11-03T19:24:19.063Z,99668.22
2022-11-03T19:29:40.442Z,99672.13
2022-11-03T19:34:45.169Z,99678.28
2022-11-03T19:39:48.348Z,99675.50
2022-11-03T19:44:52.810Z,99674.78
2022-11-03T19:50:11.412Z,99684.28
2022-11-03T19:55:15.777Z,99674.72
2022-11-03T20:00:19.867Z,99683.69
2022-11-03T20:05:38.413Z,99665.09
2022-11-03T20:10:41.286Z,99664.28
2022-11-03T20:15:43.942Z,99668.34
2022-11-03T20:21:03.425Z,99668.72
2022-11-03T20:31:57.434Z,99669.63
2022-11-03T20:37:04.640Z,99654.94
2022-11-03T20:42:18.936Z,99654.00
2022-11-03T20:47:21.590Z,99664.53
2022-11-03T20:52:26.002Z,99648.16
2022-11-03T20:57:43.453Z,99665.78
2022-11-03T21:02:47.260Z,99665.47
2022-11-03T21:08:06.470Z,99648.16
2022-11-03T21:13:17.502Z,99656.81
2022-11-03T21:18:37.725Z,99671.06
2022-11-03T22:08:37.137Z,99681.00
2022-11-03T22:13:39.709Z,99689.50
2022-11-03T22:18:56.859Z,99692.31
2022-11-03T22:24:18.478Z,99680.03
2022-11-03T22:29:38.716Z,99695.34
2022-11-03T22:35:13.722Z,99698.69
2022-11-03T22:40:35.462Z,99740.91
2022-11-03T22:45:51.699Z,99768.41
2022-11-03T22:51:02.897Z,99767.75
2022-11-03T22:56:07.510Z,99782.53
2022-11-03T23:01:11.680Z,99788.44
2022-11-03T23:06:16.166Z,99793.28
2022-11-03T23:11:22.288Z,99783.47
2022-11-03T23:16:26.679Z,99757.22
2022-11-03T23:21:30.303Z,99756.38
2022-11-03T23:26:34.846Z,99784.69
2022-11-03T23:31:38.247Z,99806.09
2022-11-03T23:36:41.181Z,99827.78
2022-11-03T23:41:46.249Z,99832.03
2022-11-03T23:47:06.396Z,99839.44
2022-11-03T23:52:09.338Z,99848.69
2022-11-03T23:57:30.767Z,99863.97
